Zhaltyr, Kazakhstan
Current Conditions -  °F | °C
As of 2:00 AM on Saturday 20 Dec 2014 (Local Time) from UACC Reporting Station
Clear Clear  
Wind Chill: -14°   Ceiling: Unl
Heat Index: -4°   Visibility: 6mi
Dew Point: -9°   Wind: 4mph
Humidity: 78%   Direction: 110°ESE
Pressure: 30.33"   Gusts: NA
Location:  51.62°N, 69.8°E
Report Text: UACC 192000Z 11002MPS CAVOK M20/M23 Q1027 R04/8/0065 NOSIG RMKQFE738/0985
Loading
Personal Weather Stations






























Interactive Weather Map New forecast layout! Learn more

10-Day Weather Forecast

Advertisements
Track Severe Weather on mobile